Aviation Digital Data Service (ADDS)

Output produced by METARs form (0347 UTC 19 September 2014)
found at http://aviationweather.gov/adds/metars/
 
KPBG 182324Z 1900/1924 33005KT P6SM FEW050 
     FM190200 VRB03KT P6SM SKC 
     FM191400 13009KT P6SM SKC